sensor_id;sensor_type;location;lat;lon;timestamp;pressure;altitude;pressure_sealevel;temperature;humidity
72798;BME280;61084;55.816;37.036;2023-04-09T00:02:22;100473.66;;;5.25;52.94
72798;BME280;61084;55.816;37.036;2023-04-09T00:04:47;100465.88;;;5.22;52.94
72798;BME280;61084;55.816;37.036;2023-04-09T00:07:13;100465.13;;;5.17;53.04
72798;BME280;61084;55.816;37.036;2023-04-09T00:09:39;100466.00;;;5.14;53.40
72798;BME280;61084;55.816;37.036;2023-04-09T00:12:05;100472.97;;;5.12;53.58
72798;BME280;61084;55.816;37.036;2023-04-09T00:14:31;100460.00;;;5.11;53.74
72798;BME280;61084;55.816;37.036;2023-04-09T00:16:56;100467.75;;;5.14;53.66
72798;BME280;61084;55.816;37.036;2023-04-09T00:19:22;100467.75;;;5.15;53.20
72798;BME280;61084;55.816;37.036;2023-04-09T00:21:48;100466.84;;;5.16;53.15
72798;BME280;61084;55.816;37.036;2023-04-09T00:24:14;100465.91;;;5.20;53.19
72798;BME280;61084;55.816;37.036;2023-04-09T00:26:40;100465.91;;;5.20;53.01
72798;BME280;61084;55.816;37.036;2023-04-09T00:29:05;100467.66;;;5.21;53.20
72798;BME280;61084;55.816;37.036;2023-04-09T00:31:31;100466.84;;;5.16;53.62
72798;BME280;61084;55.816;37.036;2023-04-09T00:33:57;100464.28;;;5.13;53.71
72798;BME280;61084;55.816;37.036;2023-04-09T00:36:23;100474.72;;;5.12;53.36
72798;BME280;61084;55.816;37.036;2023-04-09T00:38:49;100471.25;;;5.13;53.37
72798;BME280;61084;55.816;37.036;2023-04-09T00:41:16;100474.72;;;5.12;53.52
72798;BME280;61084;55.816;37.036;2023-04-09T00:43:42;100471.31;;;5.08;54.25
72798;BME280;61084;55.816;37.036;2023-04-09T00:46:08;100477.41;;;5.06;53.60
72798;BME280;61084;55.816;37.036;2023-04-09T00:48:37;100475.66;;;5.06;53.85
72798;BME280;61084;55.816;37.036;2023-04-09T00:51:03;100470.47;;;5.05;54.27
72798;BME280;61084;55.816;37.036;2023-04-09T00:53:29;100464.44;;;5.03;53.91
72798;BME280;61084;55.816;37.036;2023-04-09T00:55:55;100474.88;;;4.98;54.44
72798;BME280;61084;55.816;37.036;2023-04-09T00:58:21;100470.63;;;4.96;54.29
72798;BME280;61084;55.816;37.036;2023-04-09T01:00:47;100466.31;;;4.92;54.31
72798;BME280;61084;55.816;37.036;2023-04-09T01:03:13;100469.81;;;4.91;54.45
72798;BME280;61084;55.816;37.036;2023-04-09T01:08:42;100474.16;;;4.87;54.49
72798;BME280;61084;55.816;37.036;2023-04-09T01:14:22;100466.38;;;4.87;54.75
72798;BME280;61084;55.816;37.036;2023-04-09T01:16:57;100467.22;;;4.88;54.57
72798;BME280;61084;55.816;37.036;2023-04-09T01:19:47;100472.47;;;4.86;54.52
72798;BME280;61084;55.816;37.036;2023-04-09T01:28:24;100478.66;;;4.78;55.05
72798;BME280;61084;55.816;37.036;2023-04-09T01:30:58;100471.72;;;4.75;55.43
72798;BME280;61084;55.816;37.036;2023-04-09T01:33:25;100482.16;;;4.74;55.28
72798;BME280;61084;55.816;37.036;2023-04-09T01:35:52;100483.94;;;4.72;55.51
72798;BME280;61084;55.816;37.036;2023-04-09T01:38:20;100487.38;;;4.71;55.52
72798;BME280;61084;55.816;37.036;2023-04-09T01:40:51;100477.78;;;4.74;55.38
72798;BME280;61084;55.816;37.036;2023-04-09T01:43:18;100476.94;;;4.75;54.89
72798;BME280;61084;55.816;37.036;2023-04-09T01:45:45;100477.78;;;4.77;54.99
72798;BME280;61084;55.816;37.036;2023-04-09T01:48:13;100483.78;;;4.81;55.08
72798;BME280;61084;55.816;37.036;2023-04-09T01:50:39;100476.84;;;4.81;55.16
72798;BME280;61084;55.816;37.036;2023-04-09T01:53:05;100478.59;;;4.81;55.36
72798;BME280;61084;55.816;37.036;2023-04-09T01:55:31;100482.94;;;4.79;55.83
72798;BME280;61084;55.816;37.036;2023-04-09T01:57:57;100476.94;;;4.75;55.93
72798;BME280;61084;55.816;37.036;2023-04-09T02:00:26;100469.09;;;4.77;55.72
72798;BME280;61084;55.816;37.036;2023-04-09T02:03:04;100478.63;;;4.79;55.83
72798;BME280;61084;55.816;37.036;2023-04-09T02:05:36;100475.97;;;4.81;55.47
72798;BME280;61084;55.816;37.036;2023-04-09T02:08:05;100474.31;;;4.77;56.02
72798;BME280;61084;55.816;37.036;2023-04-09T02:10:34;100476.88;;;4.80;55.52
72798;BME280;61084;55.816;37.036;2023-04-09T02:13:02;100478.59;;;4.81;55.78
72798;BME280;61084;55.816;37.036;2023-04-09T02:15:30;100486.41;;;4.79;55.96
72798;BME280;61084;55.816;37.036;2023-04-09T02:17:57;100482.13;;;4.78;55.98
72798;BME280;61084;55.816;37.036;2023-04-09T02:20:23;100483.00;;;4.76;56.31
72798;BME280;61084;55.816;37.036;2023-04-09T02:22:49;100476.13;;;4.72;56.16
72798;BME280;61084;55.816;37.036;2023-04-09T02:25:15;100480.44;;;4.73;56.06
72798;BME280;61084;55.816;37.036;2023-04-09T02:27:41;100482.16;;;4.72;56.45
72798;BME280;61084;55.816;37.036;2023-04-09T02:30:08;100479.56;;;4.72;56.67
72798;BME280;61084;55.816;37.036;2023-04-09T02:32:34;100475.22;;;4.73;56.24
72798;BME280;61084;55.816;37.036;2023-04-09T02:35:00;100476.97;;;4.74;56.29
72798;BME280;61084;55.816;37.036;2023-04-09T02:37:25;100476.09;;;4.73;56.98
72798;BME280;61084;55.816;37.036;2023-04-09T02:39:51;100477.88;;;4.70;56.39
72798;BME280;61084;55.816;37.036;2023-04-09T02:42:17;100476.13;;;4.72;56.52
72798;BME280;61084;55.816;37.036;2023-04-09T02:44:43;100479.53;;;4.75;55.96
72798;BME280;61084;55.816;37.036;2023-04-09T02:47:10;100476.91;;;4.77;56.07
72798;BME280;61084;55.816;37.036;2023-04-09T02:49:37;100478.66;;;4.78;56.00
72798;BME280;61084;55.816;37.036;2023-04-09T02:52:03;100475.16;;;4.79;56.12
72798;BME280;61084;55.816;37.036;2023-04-09T02:54:28;100478.66;;;4.78;56.16
72798;BME280;61084;55.816;37.036;2023-04-09T02:56:54;100477.78;;;4.77;55.94
72798;BME280;61084;55.816;37.036;2023-04-09T02:59:20;100470.88;;;4.76;56.23
72798;BME280;61084;55.816;37.036;2023-04-09T03:01:46;100483.03;;;4.73;56.48
72798;BME280;61084;55.816;37.036;2023-04-09T03:04:12;100487.41;;;4.69;56.51
72798;BME280;61084;55.816;37.036;2023-04-09T03:06:37;100483.94;;;4.69;56.64
72798;BME280;61084;55.816;37.036;2023-04-09T03:09:03;100479.63;;;4.69;55.87
72798;BME280;61084;55.816;37.036;2023-04-09T03:11:29;100481.28;;;4.73;56.35
72798;BME280;61084;55.816;37.036;2023-04-09T03:13:55;100483.88;;;4.76;55.89
72798;BME280;61084;55.816;37.036;2023-04-09T03:16:23;100479.50;;;4.77;56.38
72798;BME280;61084;55.816;37.036;2023-04-09T03:18:49;100487.28;;;4.80;56.01
72798;BME280;61084;55.816;37.036;2023-04-09T03:21:15;100481.16;;;4.84;56.15
72798;BME280;61084;55.816;37.036;2023-04-09T03:23:46;100486.34;;;4.87;56.50
72798;BME280;61084;55.816;37.036;2023-04-09T03:26:11;100482.00;;;4.86;56.66
72798;BME280;61084;55.816;37.036;2023-04-09T03:28:43;100483.78;;;4.82;56.28
72798;BME280;61084;55.816;37.036;2023-04-09T03:31:09;100488.16;;;4.80;56.55
72798;BME280;61084;55.816;37.036;2023-04-09T03:33:37;100485.53;;;4.82;56.42
72798;BME280;61084;55.816;37.036;2023-04-09T03:36:03;100478.53;;;4.85;56.57
72798;BME280;61084;55.816;37.036;2023-04-09T03:38:39;100481.97;;;4.89;56.35
72798;BME280;61084;55.816;37.036;2023-04-09T03:41:11;100475.88;;;4.91;56.69
72798;BME280;61084;55.816;37.036;2023-04-09T03:43:37;100486.28;;;4.91;56.49
72798;BME280;61084;55.816;37.036;2023-04-09T03:46:13;100483.63;;;4.96;56.62
72798;BME280;61084;55.816;37.036;2023-04-09T03:48:47;100481.88;;;4.98;56.42
72798;BME280;61084;55.816;37.036;2023-04-09T03:51:14;100486.13;;;5.00;56.26
72798;BME280;61084;55.816;37.036;2023-04-09T03:53:46;100482.63;;;5.03;56.30
72798;BME280;61084;55.816;37.036;2023-04-09T03:56:12;100483.47;;;5.06;56.36
72798;BME280;61084;55.816;37.036;2023-04-09T03:58:38;100487.78;;;5.07;56.72
72798;BME280;61084;55.816;37.036;2023-04-09T04:01:05;100487.81;;;5.06;56.88
72798;BME280;61084;55.816;37.036;2023-04-09T04:03:39;100487.78;;;5.07;56.83
72798;BME280;61084;55.816;37.036;2023-04-09T04:06:10;100482.59;;;5.09;57.21
72798;BME280;61084;55.816;37.036;2023-04-09T04:08:51;100488.66;;;5.08;57.38
72798;BME280;61084;55.816;37.036;2023-04-09T04:11:19;100490.38;;;5.07;57.22
72798;BME280;61084;55.816;37.036;2023-04-09T04:13:46;100486.84;;;5.11;57.45
72798;BME280;61084;55.816;37.036;2023-04-09T04:16:12;100489.44;;;5.14;57.36
72798;BME280;61084;55.816;37.036;2023-04-09T04:18:39;100492.81;;;5.21;56.79
72798;BME280;61084;55.816;37.036;2023-04-09T04:21:11;100478.84;;;5.26;57.42
72798;BME280;61084;55.816;37.036;2023-04-09T04:23:40;100479.59;;;5.33;57.13
72798;BME280;61084;55.816;37.036;2023-04-09T04:26:16;100480.31;;;5.44;56.99
72798;BME280;61084;55.816;37.036;2023-04-09T04:28:42;100476.63;;;5.57;57.33
72798;BME280;61084;55.816;37.036;2023-04-09T04:31:12;100469.56;;;5.67;56.98
72798;BME280;61084;55.816;37.036;2023-04-09T04:33:40;100471.94;;;5.79;57.39
72798;BME280;61084;55.816;37.036;2023-04-09T04:36:11;100479.63;;;5.91;56.94
72798;BME280;61084;55.816;37.036;2023-04-09T04:38:41;100476.78;;;6.03;57.29
72798;BME280;61084;55.816;37.036;2023-04-09T04:41:14;100473.97;;;6.15;56.87
72798;BME280;61084;55.816;37.036;2023-04-09T04:43:46;100485.84;;;6.31;56.97
72798;BME280;61084;55.816;37.036;2023-04-09T04:46:18;100477.72;;;6.48;56.93
72798;BME280;61084;55.816;37.036;2023-04-09T04:48:46;100481.72;;;6.64;56.39
72798;BME280;61084;55.816;37.036;2023-04-09T04:51:12;100478.81;;;6.79;56.17
72798;BME280;61084;55.816;37.036;2023-04-09T04:53:43;100468.13;;;6.91;56.63
72798;BME280;61084;55.816;37.036;2023-04-09T04:56:13;100474.81;;;7.03;55.94
72798;BME280;61084;55.816;37.036;2023-04-09T04:58:44;100469.41;;;7.13;55.66
72798;BME280;61084;55.816;37.036;2023-04-09T05:01:13;100478.78;;;7.22;55.26
72798;BME280;61084;55.816;37.036;2023-04-09T05:03:39;100473.31;;;7.31;55.02
72798;BME280;61084;55.816;37.036;2023-04-09T05:06:40;100478.44;;;7.37;54.49
72798;BME280;61084;55.816;37.036;2023-04-09T05:09:11;100478.25;;;7.44;54.47
72798;BME280;61084;55.816;37.036;2023-04-09T05:11:48;100475.47;;;7.50;54.73
72798;BME280;61084;55.816;37.036;2023-04-09T05:14:18;100478.84;;;7.55;54.34
72798;BME280;61084;55.816;37.036;2023-04-09T05:16:47;100470.91;;;7.60;54.64
72798;BME280;61084;55.816;37.036;2023-04-09T05:19:13;100476.91;;;7.63;54.40
72798;BME280;61084;55.816;37.036;2023-04-09T05:21:39;100479.41;;;7.68;54.55
72798;BME280;61084;55.816;37.036;2023-04-09T05:24:05;100476.69;;;7.74;54.64
72798;BME280;61084;55.816;37.036;2023-04-09T05:26:32;100477.25;;;7.85;54.09
72798;BME280;61084;55.816;37.036;2023-04-09T05:28:58;100476.16;;;7.95;53.94
72798;BME280;61084;55.816;37.036;2023-04-09T05:31:25;100480.25;;;8.05;53.87
72798;BME280;61084;55.816;37.036;2023-04-09T05:34:02;100485.19;;;8.16;53.48
72798;BME280;61084;55.816;37.036;2023-04-09T05:36:36;100486.59;;;8.30;53.51
72798;BME280;61084;55.816;37.036;2023-04-09T05:39:02;100484.41;;;8.48;53.45
72798;BME280;61084;55.816;37.036;2023-04-09T05:41:29;100496.19;;;8.62;53.48
72798;BME280;61084;55.816;37.036;2023-04-09T05:44:23;100488.84;;;8.76;53.25
72798;BME280;61084;55.816;37.036;2023-04-09T05:46:52;100491.13;;;8.87;53.23
72798;BME280;61084;55.816;37.036;2023-04-09T05:49:23;100491.78;;;8.95;52.75
72798;BME280;61084;55.816;37.036;2023-04-09T05:51:51;100490.72;;;9.00;52.95
72798;BME280;61084;55.816;37.036;2023-04-09T05:54:23;100490.72;;;9.00;52.69
72798;BME280;61084;55.816;37.036;2023-04-09T05:56:50;100500.13;;;9.07;52.30
72798;BME280;61084;55.816;37.036;2023-04-09T05:59:17;100493.56;;;9.22;52.41
72798;BME280;61084;55.816;37.036;2023-04-09T06:01:43;100489.78;;;9.32;52.30
72798;BME280;61084;55.816;37.036;2023-04-09T06:04:09;100496.59;;;9.38;52.42
72798;BME280;61084;55.816;37.036;2023-04-09T06:06:37;100496.25;;;9.48;52.15
72798;BME280;61084;55.816;37.036;2023-04-09T06:09:03;100500.47;;;9.54;52.35
72798;BME280;61084;55.816;37.036;2023-04-09T06:11:29;100503.94;;;9.54;51.98
72798;BME280;61084;55.816;37.036;2023-04-09T06:13:55;100504.63;;;9.59;51.91
72798;BME280;61084;55.816;37.036;2023-04-09T06:16:21;100506.94;;;9.70;51.71
72798;BME280;61084;55.816;37.036;2023-04-09T06:18:47;100501.16;;;9.86;51.53
72798;BME280;61084;55.816;37.036;2023-04-09T06:21:15;100507.00;;;9.95;51.19
72798;BME280;61084;55.816;37.036;2023-04-09T06:23:41;100509.31;;;10.04;50.97
72798;BME280;61084;55.816;37.036;2023-04-09T06:26:07;100510.72;;;10.15;51.05
72798;BME280;61084;55.816;37.036;2023-04-09T06:28:33;100510.44;;;10.24;51.05
72798;BME280;61084;55.816;37.036;2023-04-09T06:31:00;100511.66;;;10.39;50.86
72798;BME280;61084;55.816;37.036;2023-04-09T06:33:26;100508.59;;;10.51;50.93
72798;BME280;61084;55.816;37.036;2023-04-09T06:35:52;100512.47;;;10.66;50.54
72798;BME280;61084;55.816;37.036;2023-04-09T06:38:18;100514.72;;;10.76;50.14
72798;BME280;61084;55.816;37.036;2023-04-09T06:40:44;100512.50;;;10.89;50.21
72798;BME280;61084;55.816;37.036;2023-04-09T06:43:09;100509.41;;;11.01;50.18
72798;BME280;61084;55.816;37.036;2023-04-09T06:45:55;100514.16;;;11.14;49.59
72798;BME280;61084;55.816;37.036;2023-04-09T06:48:21;100521.72;;;11.23;49.37
72798;BME280;61084;55.816;37.036;2023-04-09T06:50:55;100517.06;;;11.30;49.47
72798;BME280;61084;55.816;37.036;2023-04-09T06:53:20;100522.97;;;11.36;49.57
72798;BME280;61084;55.816;37.036;2023-04-09T06:55:46;100515.44;;;11.49;49.46
72798;BME280;61084;55.816;37.036;2023-04-09T06:58:12;100513.34;;;11.59;49.18
72798;BME280;61084;55.816;37.036;2023-04-09T07:00:37;100512.78;;;11.72;49.06
72798;BME280;61084;55.816;37.036;2023-04-09T07:03:03;100513.19;;;11.85;49.09
72798;BME280;61084;55.816;37.036;2023-04-09T07:05:32;100509.97;;;11.98;49.00
72798;BME280;61084;55.816;37.036;2023-04-09T07:07:57;100519.88;;;12.13;48.67
72798;BME280;61084;55.816;37.036;2023-04-09T07:10:23;100514.03;;;12.27;48.34
72798;BME280;61084;55.816;37.036;2023-04-09T07:12:49;100514.03;;;12.27;47.83
72798;BME280;61084;55.816;37.036;2023-04-09T07:15:15;100516.38;;;12.35;47.42
72798;BME280;61084;55.816;37.036;2023-04-09T07:17:40;100515.50;;;12.34;47.54
72798;BME280;61084;55.816;37.036;2023-04-09T07:20:06;100520.31;;;12.45;47.97
72798;BME280;61084;55.816;37.036;2023-04-09T07:22:32;100523.34;;;12.56;47.87
72798;BME280;61084;55.816;37.036;2023-04-09T07:24:58;100519.44;;;12.64;47.59
72798;BME280;61084;55.816;37.036;2023-04-09T07:27:27;100521.56;;;12.76;47.56
72798;BME280;61084;55.816;37.036;2023-04-09T07:29:58;100526.38;;;12.87;47.33
72798;BME280;61084;55.816;37.036;2023-04-09T07:32:25;100517.13;;;12.97;47.10
72798;BME280;61084;55.816;37.036;2023-04-09T07:34:52;100513.91;;;13.11;47.18
72798;BME280;61084;55.816;37.036;2023-04-09T07:37:19;100519.34;;;13.26;47.38
72798;BME280;61084;55.816;37.036;2023-04-09T07:39:45;100520.69;;;13.35;46.43
72798;BME280;61084;55.816;37.036;2023-04-09T07:42:11;100511.31;;;13.46;46.36
72798;BME280;61084;55.816;37.036;2023-04-09T07:44:37;100517.72;;;13.59;46.84
72798;BME280;61084;55.816;37.036;2023-04-09T07:47:03;100519.59;;;13.76;46.59
72798;BME280;61084;55.816;37.036;2023-04-09T07:49:29;100524.19;;;13.90;45.43
72798;BME280;61084;55.816;37.036;2023-04-09T07:51:56;100515.91;;;13.97;45.65
72798;BME280;61084;55.816;37.036;2023-04-09T07:54:22;100511.72;;;14.10;45.61
72798;BME280;61084;55.816;37.036;2023-04-09T07:56:48;100512.84;;;14.23;45.66
72798;BME280;61084;55.816;37.036;2023-04-09T07:59:13;100509.69;;;14.34;45.68
72798;BME280;61084;55.816;37.036;2023-04-09T08:01:42;100507.59;;;14.41;45.68
72798;BME280;61084;55.816;37.036;2023-04-09T08:04:09;100508.75;;;14.52;45.44
72798;BME280;61084;55.816;37.036;2023-04-09T08:06:35;100509.53;;;14.54;44.63
72798;BME280;61084;55.816;37.036;2023-04-09T08:09:01;100503.78;;;14.63;44.74
72798;BME280;61084;55.816;37.036;2023-04-09T08:11:27;100505.94;;;14.72;44.83
72798;BME280;61084;55.816;37.036;2023-04-09T08:13:53;100501.00;;;14.82;44.99
72798;BME280;61084;55.816;37.036;2023-04-09T08:16:19;100499.56;;;14.92;44.74
72798;BME280;61084;55.816;37.036;2023-04-09T08:18:49;100498.16;;;15.02;44.15
72798;BME280;61084;55.816;37.036;2023-04-09T08:21:15;100505.53;;;15.13;44.27
72798;BME280;61084;55.816;37.036;2023-04-09T08:23:41;100496.91;;;15.25;44.46
72798;BME280;61084;55.816;37.036;2023-04-09T08:26:10;100498.13;;;15.35;43.90
72798;BME280;61084;55.816;37.036;2023-04-09T08:28:36;100495.69;;;15.47;44.18
72798;BME280;61084;55.816;37.036;2023-04-09T08:31:02;100488.38;;;15.52;43.93
72798;BME280;61084;55.816;37.036;2023-04-09T08:33:28;100485.38;;;15.58;44.10
72798;BME280;61084;55.816;37.036;2023-04-09T08:35:54;100491.19;;;15.65;43.08
72798;BME280;61084;55.816;37.036;2023-04-09T08:38:20;100481.00;;;15.73;42.76
72798;BME280;61084;55.816;37.036;2023-04-09T08:40:46;100482.19;;;15.83;43.16
72798;BME280;61084;55.816;37.036;2023-04-09T08:43:14;100475.25;;;15.96;42.96
72798;BME280;61084;55.816;37.036;2023-04-09T08:45:41;100476.16;;;16.11;43.02
72798;BME280;61084;55.816;37.036;2023-04-09T08:48:09;100471.94;;;16.22;42.69
72798;BME280;61084;55.816;37.036;2023-04-09T08:50:35;100477.38;;;16.35;42.79
72798;BME280;61084;55.816;37.036;2023-04-09T08:53:06;100472.09;;;16.49;42.28
72798;BME280;61084;55.816;37.036;2023-04-09T08:55:32;100471.47;;;16.59;42.41
72798;BME280;61084;55.816;37.036;2023-04-09T08:57:59;100477.19;;;16.68;42.20
72798;BME280;61084;55.816;37.036;2023-04-09T09:00:28;100471.22;;;16.78;41.58
72798;BME280;61084;55.816;37.036;2023-04-09T09:03:08;100462.69;;;16.87;41.40
72798;BME280;61084;55.816;37.036;2023-04-09T09:05:38;100465.34;;;17.01;41.43
72798;BME280;61084;55.816;37.036;2023-04-09T09:08:09;100474.44;;;17.11;41.69
72798;BME280;61084;55.816;37.036;2023-04-09T09:10:41;100464.47;;;17.15;40.58
72798;BME280;61084;55.816;37.036;2023-04-09T09:13:24;100466.38;;;17.13;40.19
72798;BME280;61084;55.816;37.036;2023-04-09T09:15:52;100456.97;;;17.21;40.34
72798;BME280;61084;55.816;37.036;2023-04-09T09:18:37;100459.81;;;17.32;40.08
72798;BME280;61084;55.816;37.036;2023-04-09T09:21:14;100458.25;;;17.43;40.04
72798;BME280;61084;55.816;37.036;2023-04-09T09:23:40;100460.25;;;17.53;39.77
72798;BME280;61084;55.816;37.036;2023-04-09T09:26:14;100461.28;;;17.65;39.60
72798;BME280;61084;55.816;37.036;2023-04-09T09:28:41;100451.09;;;17.71;39.48
72798;BME280;61084;55.816;37.036;2023-04-09T09:31:11;100455.25;;;17.75;39.05
72798;BME280;61084;55.816;37.036;2023-04-09T09:33:37;100459.13;;;17.84;38.66
72798;BME280;61084;55.816;37.036;2023-04-09T09:36:03;100444.69;;;17.88;39.57
72798;BME280;61084;55.816;37.036;2023-04-09T09:38:30;100448.13;;;18.02;40.10
72798;BME280;61084;55.816;37.036;2023-04-09T09:40:57;100456.13;;;18.02;37.73
72798;BME280;61084;55.816;37.036;2023-04-09T09:43:23;100446.66;;;17.98;37.73
72798;BME280;61084;55.816;37.036;2023-04-09T09:45:49;100445.94;;;18.09;38.80
72798;BME280;61084;55.816;37.036;2023-04-09T09:48:15;100446.50;;;18.27;39.13
72798;BME280;61084;55.816;37.036;2023-04-09T09:50:41;100452.00;;;18.24;38.17
72798;BME280;61084;55.816;37.036;2023-04-09T09:53:08;100448.59;;;18.09;38.08
72798;BME280;61084;55.816;37.036;2023-04-09T09:55:39;100452.41;;;18.05;38.74
72798;BME280;61084;55.816;37.036;2023-04-09T09:58:11;100441.34;;;18.11;38.87
72798;BME280;61084;55.816;37.036;2023-04-09T10:00:41;100443.09;;;18.25;38.40
72798;BME280;61084;55.816;37.036;2023-04-09T10:03:14;100439.59;;;18.37;38.35
72798;BME280;61084;55.816;37.036;2023-04-09T10:05:43;100439.75;;;18.48;37.57
72798;BME280;61084;55.816;37.036;2023-04-09T10:08:11;100429.66;;;18.53;37.46
72798;BME280;61084;55.816;37.036;2023-04-09T10:10:38;100433.66;;;18.58;37.62
72798;BME280;61084;55.816;37.036;2023-04-09T10:13:19;100432.06;;;18.68;37.18
72798;BME280;61084;55.816;37.036;2023-04-09T10:15:46;100434.00;;;18.79;36.42
72798;BME280;61084;55.816;37.036;2023-04-09T10:18:14;100428.56;;;18.80;36.60
72798;BME280;61084;55.816;37.036;2023-04-09T10:20:51;100433.34;;;18.88;35.46
72798;BME280;61084;55.816;37.036;2023-04-09T10:23:31;100431.97;;;18.70;35.80
72798;BME280;61084;55.816;37.036;2023-04-09T10:25:58;100427.06;;;18.64;36.01
72798;BME280;61084;55.816;37.036;2023-04-09T10:28:24;100431.56;;;18.63;37.08
72798;BME280;61084;55.816;37.036;2023-04-09T10:30:52;100433.47;;;18.61;35.77
72798;BME280;61084;55.816;37.036;2023-04-09T10:33:21;100427.19;;;18.62;35.48
72798;BME280;61084;55.816;37.036;2023-04-09T10:35:51;100421.22;;;18.59;35.67
72798;BME280;61084;55.816;37.036;2023-04-09T10:38:35;100426.56;;;18.59;34.63
72798;BME280;61084;55.816;37.036;2023-04-09T10:41:13;100419.53;;;18.58;34.57
72798;BME280;61084;55.816;37.036;2023-04-09T10:43:39;100427.31;;;18.48;35.18
72798;BME280;61084;55.816;37.036;2023-04-09T10:46:23;100431.00;;;18.46;34.60
72798;BME280;61084;55.816;37.036;2023-04-09T10:49:20;100421.13;;;18.48;34.21
72798;BME280;61084;55.816;37.036;2023-04-09T10:51:51;100429.22;;;18.46;35.28
72798;BME280;61084;55.816;37.036;2023-04-09T10:57:15;100419.09;;;18.51;34.08
72798;BME280;61084;55.816;37.036;2023-04-09T10:59:52;100425.06;;;18.55;34.82
72798;BME280;61084;55.816;37.036;2023-04-09T11:02:47;100424.41;;;18.51;34.17
72798;BME280;61084;55.816;37.036;2023-04-09T11:08:12;100421.00;;;18.49;34.70
72798;BME280;61084;55.816;37.036;2023-04-09T11:10:42;100432.03;;;18.43;35.10
72798;BME280;61084;55.816;37.036;2023-04-09T11:13:16;100431.72;;;18.35;35.07
72798;BME280;61084;55.816;37.036;2023-04-09T11:15:44;100427.47;;;18.33;34.52
72798;BME280;61084;55.816;37.036;2023-04-09T11:18:29;100430.53;;;18.27;34.04
72798;BME280;61084;55.816;37.036;2023-04-09T11:20:55;100428.81;;;18.26;34.43
72798;BME280;61084;55.816;37.036;2023-04-09T11:23:22;100424.38;;;18.26;34.70
72798;BME280;61084;55.816;37.036;2023-04-09T11:25:49;100428.38;;;18.19;34.33
72798;BME280;61084;55.816;37.036;2023-04-09T11:28:15;100424.25;;;18.15;34.27
72798;BME280;61084;55.816;37.036;2023-04-09T11:30:42;100427.22;;;18.11;34.47
72798;BME280;61084;55.816;37.036;2023-04-09T11:33:08;100424.75;;;18.07;34.33
72798;BME280;61084;55.816;37.036;2023-04-09T11:35:35;100425.16;;;18.01;34.41
72798;BME280;61084;55.816;37.036;2023-04-09T11:38:05;100421.75;;;17.99;34.29
72798;BME280;61084;55.816;37.036;2023-04-09T11:40:31;100432.69;;;17.95;34.64
72798;BME280;61084;55.816;37.036;2023-04-09T11:42:57;100429.59;;;17.88;34.68
72798;BME280;61084;55.816;37.036;2023-04-09T11:45:26;100423.09;;;17.80;34.33
72798;BME280;61084;55.816;37.036;2023-04-09T11:47:52;100422.66;;;17.73;34.53
72798;BME280;61084;55.816;37.036;2023-04-09T11:50:18;100421.16;;;17.69;34.47
72798;BME280;61084;55.816;37.036;2023-04-09T11:52:45;100423.06;;;17.67;34.96
72798;BME280;61084;55.816;37.036;2023-04-09T11:55:11;100416.03;;;17.66;34.06
72798;BME280;61084;55.816;37.036;2023-04-09T11:57:47;100412.72;;;17.63;34.50
72798;BME280;61084;55.816;37.036;2023-04-09T12:00:16;100415.38;;;17.63;34.76
72798;BME280;61084;55.816;37.036;2023-04-09T12:02:44;100414.44;;;17.64;34.60
72798;BME280;61084;55.816;37.036;2023-04-09T12:05:19;100417.28;;;17.61;34.32
72798;BME280;61084;55.816;37.036;2023-04-09T12:07:45;100414.28;;;17.53;35.13
72798;BME280;61084;55.816;37.036;2023-04-09T12:10:10;100413.69;;;17.48;34.86
72798;BME280;61084;55.816;37.036;2023-04-09T12:12:41;100406.97;;;17.42;34.71
72798;BME280;61084;55.816;37.036;2023-04-09T12:17:53;100409.72;;;17.41;35.04
72798;BME280;61084;55.816;37.036;2023-04-09T12:20:39;100408.63;;;17.30;34.25
72798;BME280;61084;55.816;37.036;2023-04-09T12:23:07;100402.75;;;17.25;34.97
72798;BME280;61084;55.816;37.036;2023-04-09T12:25:44;100405.13;;;17.30;34.78
72798;BME280;61084;55.816;37.036;2023-04-09T12:28:12;100401.31;;;17.34;35.04
72798;BME280;61084;55.816;37.036;2023-04-09T12:30:43;100402.06;;;17.36;35.36
72798;BME280;61084;55.816;37.036;2023-04-09T12:33:09;100405.88;;;17.32;33.60
72798;BME280;61084;55.816;37.036;2023-04-09T12:35:35;100403.81;;;17.23;34.27
72798;BME280;61084;55.816;37.036;2023-04-09T12:38:02;100405.72;;;17.21;34.26
72798;BME280;61084;55.816;37.036;2023-04-09T12:40:29;100397.44;;;17.25;34.59
72798;BME280;61084;55.816;37.036;2023-04-09T12:42:55;100396.00;;;17.34;35.19
72798;BME280;61084;55.816;37.036;2023-04-09T12:45:21;100395.59;;;17.40;35.30
72798;BME280;61084;55.816;37.036;2023-04-09T12:47:47;100397.50;;;17.38;34.41
72798;BME280;61084;55.816;37.036;2023-04-09T12:50:14;100397.50;;;17.38;34.30
72798;BME280;61084;55.816;37.036;2023-04-09T12:52:43;100395.72;;;17.39;33.67
72798;BME280;61084;55.816;37.036;2023-04-09T12:55:10;100394.56;;;17.43;34.23
72798;BME280;61084;55.816;37.036;2023-04-09T12:57:37;100397.22;;;17.43;34.60
72798;BME280;61084;55.816;37.036;2023-04-09T13:00:05;100388.31;;;17.44;33.76
72798;BME280;61084;55.816;37.036;2023-04-09T13:02:32;100389.06;;;17.46;33.73
72798;BME280;61084;55.816;37.036;2023-04-09T13:04:58;100392.75;;;17.43;34.47
72798;BME280;61084;55.816;37.036;2023-04-09T13:07:24;100385.72;;;17.42;33.65
72798;BME280;61084;55.816;37.036;2023-04-09T13:09:54;100396.34;;;17.42;34.45
72798;BME280;61084;55.816;37.036;2023-04-09T13:12:20;100389.47;;;17.40;33.36
72798;BME280;61084;55.816;37.036;2023-04-09T13:14:47;100387.94;;;17.35;33.99